createdAt,value
2018-11-14T00:00:45.011Z,4.10
2018-11-14T00:01:45.000Z,4.20
2018-11-14T00:02:44.984Z,6.10
2018-11-14T00:03:45.164Z,7.10
2018-11-14T00:04:44.961Z,4.40
2018-11-14T00:05:44.951Z,4.00
2018-11-14T00:06:44.950Z,10.30
2018-11-14T00:07:44.935Z,6.00
2018-11-14T00:08:44.924Z,6.60
2018-11-14T00:09:45.006Z,5.00
2018-11-14T00:10:44.906Z,4.80
2018-11-14T00:11:44.886Z,6.10
2018-11-14T00:12:44.877Z,5.00
2018-11-14T00:13:44.871Z,4.70
2018-11-14T00:14:44.858Z,6.50
2018-11-14T00:15:44.885Z,5.70
2018-11-14T00:16:44.832Z,6.80
2018-11-14T00:17:44.825Z,4.30
2018-11-14T00:18:44.816Z,8.40
2018-11-14T00:19:44.803Z,8.20
2018-11-14T00:20:44.797Z,4.60
2018-11-14T00:21:45.322Z,5.90
2018-11-14T00:22:44.768Z,7.90
2018-11-14T00:23:44.764Z,5.20
2018-11-14T00:24:44.788Z,6.20
2018-11-14T00:25:44.739Z,8.00
2018-11-14T00:26:55.674Z,5.50
2018-11-14T00:27:44.786Z,10.40
2018-11-14T00:28:44.703Z,8.90
2018-11-14T00:29:44.694Z,12.60
2018-11-14T00:30:44.688Z,5.60
2018-11-14T00:31:44.670Z,7.00
2018-11-14T00:32:44.856Z,5.40
2018-11-14T00:33:44.713Z,6.50
2018-11-14T00:34:44.676Z,5.00
2018-11-14T00:35:44.739Z,8.50
2018-11-14T00:36:44.622Z,6.50
2018-11-14T00:37:44.614Z,6.70
2018-11-14T00:38:44.677Z,5.00
2018-11-14T00:39:44.584Z,7.80
2018-11-14T00:40:44.582Z,8.50
2018-11-14T00:41:44.569Z,8.00
2018-11-14T00:42:44.551Z,8.40
2018-11-14T00:43:44.546Z,8.30
2018-11-14T00:44:44.548Z,6.80
2018-11-14T00:45:44.523Z,9.00
2018-11-14T00:46:44.510Z,9.40
2018-11-14T00:47:44.506Z,7.60
2018-11-14T00:48:44.490Z,6.60
2018-11-14T00:49:44.482Z,5.90
2018-11-14T00:50:44.680Z,8.80
2018-11-14T00:51:44.461Z,5.40
2018-11-14T00:52:44.451Z,6.00
2018-11-14T00:53:44.444Z,7.30
2018-11-14T00:54:44.427Z,6.30
2018-11-14T00:55:44.417Z,7.80
2018-11-14T00:56:44.445Z,5.80
2018-11-14T00:57:55.271Z,5.00
2018-11-14T00:58:44.381Z,7.00
2018-11-14T00:59:44.374Z,7.60
2018-11-14T01:00:44.364Z,8.30
2018-11-14T01:01:44.461Z,6.30
2018-11-14T01:02:44.377Z,6.90
2018-11-14T01:03:44.328Z,6.80
2018-11-14T01:04:44.320Z,8.60
2018-11-14T01:05:44.312Z,6.20
2018-11-14T01:06:44.298Z,6.90
2018-11-14T01:07:44.286Z,7.10
2018-11-14T01:08:44.314Z,10.30
2018-11-14T01:09:44.259Z,9.70
2018-11-14T01:10:44.254Z,8.30
2018-11-14T01:11:44.247Z,9.20
2018-11-14T01:12:44.234Z,6.50
2018-11-14T01:13:44.217Z,6.00
2018-11-14T01:14:44.251Z,7.30
2018-11-14T01:15:44.197Z,6.70
2018-11-14T01:16:44.187Z,7.20
2018-11-14T01:17:44.177Z,5.80
2018-11-14T01:18:44.165Z,8.50
2018-11-14T01:19:44.152Z,7.20
2018-11-14T01:20:44.200Z,6.40
2018-11-14T01:21:44.170Z,11.50
2018-11-14T01:22:44.126Z,7.90
2018-11-14T01:23:44.117Z,5.60
2018-11-14T01:24:44.105Z,10.10
2018-11-14T01:25:44.090Z,7.10
2018-11-14T01:26:44.123Z,6.60
2018-11-14T01:27:44.074Z,9.00
2018-11-14T01:28:54.311Z,8.00
2018-11-14T01:29:44.044Z,6.20
2018-11-14T01:30:44.038Z,10.00
2018-11-14T01:31:44.028Z,9.10
2018-11-14T01:32:44.048Z,9.30
2018-11-14T01:33:44.004Z,5.60
2018-11-14T01:34:43.996Z,6.30
2018-11-14T01:35:44.039Z,5.90
2018-11-14T01:36:43.983Z,6.60
2018-11-14T01:37:43.966Z,5.30
2018-11-14T01:38:44.224Z,12.30
2018-11-14T01:39:43.940Z,6.60
2018-11-14T01:40:43.929Z,6.00
2018-11-14T01:41:43.926Z,7.80
2018-11-14T01:42:43.905Z,6.60
2018-11-14T01:43:43.894Z,6.20
2018-11-14T01:44:43.923Z,5.60
2018-11-14T01:45:43.880Z,5.20
2018-11-14T01:46:43.866Z,6.00
2018-11-14T01:47:43.853Z,8.50
2018-11-14T01:48:43.840Z,4.90
2018-11-14T01:49:43.829Z,8.10
2018-11-14T01:50:43.857Z,7.40
2018-11-14T01:51:43.813Z,7.80
2018-11-14T01:52:43.802Z,7.30
2018-11-14T01:53:43.791Z,6.00
2018-11-14T01:54:43.781Z,8.30
2018-11-14T01:55:43.772Z,5.90
2018-11-14T01:56:43.799Z,6.10
2018-11-14T01:57:43.747Z,5.00
2018-11-14T01:58:43.739Z,4.80
2018-11-14T01:59:53.999Z,7.60
2018-11-14T02:00:43.714Z,7.30
2018-11-14T02:01:43.704Z,7.70
2018-11-14T02:02:43.725Z,5.70
2018-11-14T02:03:43.682Z,6.60
2018-11-14T02:04:43.672Z,6.60
2018-11-14T02:05:43.658Z,5.20
2018-11-14T02:06:43.652Z,11.10
2018-11-14T02:07:43.647Z,6.20
2018-11-14T02:08:43.645Z,7.50
2018-11-14T02:09:43.620Z,6.50
2018-11-14T02:10:43.609Z,11.50
2018-11-14T02:11:43.595Z,5.60
2018-11-14T02:12:43.592Z,5.30
2018-11-14T02:13:43.579Z,10.00
2018-11-14T02:14:43.588Z,7.80
2018-11-14T02:15:43.553Z,8.00
2018-11-14T02:16:43.540Z,5.70
2018-11-14T02:17:43.541Z,6.90
2018-11-14T02:18:43.524Z,5.90
2018-11-14T02:19:43.517Z,4.50
2018-11-14T02:20:43.715Z,4.30
2018-11-14T02:21:43.494Z,6.90
2018-11-14T02:22:43.476Z,6.60
2018-11-14T02:23:43.468Z,4.70
2018-11-14T02:24:43.460Z,6.10
2018-11-14T02:25:43.457Z,10.50
2018-11-14T02:26:43.477Z,5.20
2018-11-14T02:27:43.431Z,7.90
2018-11-14T02:28:43.413Z,5.60
2018-11-14T02:29:43.412Z,4.00
2018-11-14T02:30:55.097Z,5.60
2018-11-14T02:31:43.380Z,4.40
2018-11-14T02:32:43.539Z,4.40
2018-11-14T02:33:43.364Z,4.40
2018-11-14T02:34:43.354Z,4.40
2018-11-14T02:35:43.337Z,5.70
2018-11-14T02:36:43.332Z,7.20
2018-11-14T02:37:43.332Z,6.70
2018-11-14T02:38:43.479Z,6.00
2018-11-14T02:39:43.307Z,5.10
2018-11-14T02:40:43.285Z,7.20
2018-11-14T02:41:43.271Z,4.70
2018-11-14T02:42:43.272Z,5.60
2018-11-14T02:43:43.257Z,5.60
2018-11-14T02:44:43.288Z,7.50
2018-11-14T02:45:43.228Z,3.80
2018-11-14T02:46:43.225Z,7.30
2018-11-14T02:47:43.214Z,7.10
2018-11-14T02:48:43.197Z,9.10
2018-11-14T02:49:43.196Z,8.50
2018-11-14T02:50:43.258Z,6.10
2018-11-14T02:51:43.170Z,7.80
2018-11-14T02:52:43.154Z,4.80
2018-11-14T02:53:43.147Z,4.80
2018-11-14T02:54:43.140Z,9.20
2018-11-14T02:55:43.128Z,7.50
2018-11-14T02:56:43.145Z,7.70
2018-11-14T02:57:43.106Z,7.50
2018-11-14T02:58:43.097Z,8.90
2018-11-14T02:59:43.082Z,5.90
2018-11-14T03:00:43.071Z,5.70
2018-11-14T03:01:53.778Z,6.30
2018-11-14T03:02:43.044Z,10.60
2018-11-14T03:03:43.038Z,7.50
2018-11-14T03:04:43.026Z,8.90
2018-11-14T03:05:43.022Z,7.70
2018-11-14T03:06:43.003Z,9.00
2018-11-14T03:07:43.169Z,9.00
2018-11-14T03:08:42.984Z,10.50
2018-11-14T03:09:42.973Z,7.80
2018-11-14T03:10:42.963Z,8.10
2018-11-14T03:11:42.946Z,5.50
2018-11-14T03:12:42.944Z,10.10
2018-11-14T03:13:42.949Z,8.40
2018-11-14T03:14:42.917Z,8.60
2018-11-14T03:15:42.911Z,6.40
2018-11-14T03:16:42.893Z,8.20
2018-11-14T03:17:42.902Z,7.90
2018-11-14T03:18:42.881Z,5.80
2018-11-14T03:19:42.886Z,12.50
2018-11-14T03:20:42.858Z,12.00
2018-11-14T03:21:42.845Z,9.80
2018-11-14T03:22:42.836Z,9.90
2018-11-14T03:23:42.827Z,8.20
2018-11-14T03:24:42.813Z,9.50
2018-11-14T03:25:42.832Z,11.50
2018-11-14T03:26:42.800Z,7.00
2018-11-14T03:27:42.789Z,9.50
2018-11-14T03:28:42.768Z,13.50
2018-11-14T03:29:42.757Z,6.80
2018-11-14T03:30:42.751Z,9.60
2018-11-14T03:31:42.768Z,8.90
2018-11-14T03:32:53.154Z,15.60
2018-11-14T03:33:42.711Z,9.40
2018-11-14T03:34:42.701Z,11.40
2018-11-14T03:35:42.695Z,10.90
2018-11-14T03:36:42.683Z,8.60
2018-11-14T03:37:42.719Z,12.30
2018-11-14T03:38:42.656Z,11.50
2018-11-14T03:39:42.654Z,10.30
2018-11-14T03:40:42.634Z,9.20
2018-11-14T03:41:42.631Z,8.00
2018-11-14T03:42:42.618Z,11.50
2018-11-14T03:43:42.645Z,8.00
2018-11-14T03:44:42.600Z,10.10
2018-11-14T03:45:42.582Z,8.00
2018-11-14T03:46:42.575Z,15.70
2018-11-14T03:47:42.562Z,10.20
2018-11-14T03:48:42.560Z,12.50
2018-11-14T03:49:42.575Z,15.60
2018-11-14T03:50:42.529Z,8.60
2018-11-14T03:51:42.524Z,11.20
2018-11-14T03:52:42.506Z,12.00
2018-11-14T03:53:42.506Z,12.40
2018-11-14T03:54:42.489Z,12.80
2018-11-14T03:55:42.516Z,7.10
2018-11-14T03:56:42.465Z,11.80
2018-11-14T03:57:42.460Z,11.50
2018-11-14T03:58:42.445Z,9.40
2018-11-14T03:59:42.435Z,9.90
2018-11-14T04:00:42.423Z,10.30
2018-11-14T04:01:42.597Z,9.30
2018-11-14T04:02:42.400Z,10.70
2018-11-14T04:03:52.889Z,13.10
2018-11-14T04:04:42.377Z,11.00
2018-11-14T04:05:42.365Z,10.60
2018-11-14T04:06:42.367Z,12.60
2018-11-14T04:07:42.387Z,9.00
2018-11-14T04:08:42.336Z,8.00
2018-11-14T04:09:42.328Z,5.80
2018-11-14T04:10:42.320Z,11.90
2018-11-14T04:11:42.308Z,6.80
2018-11-14T04:12:42.295Z,8.20
2018-11-14T04:13:42.317Z,6.20
2018-11-14T04:14:42.274Z,6.00
2018-11-14T04:15:42.263Z,7.80
2018-11-14T04:16:42.254Z,9.90
2018-11-14T04:17:42.241Z,7.00
2018-11-14T04:18:42.228Z,5.70
2018-11-14T04:19:42.306Z,9.70
2018-11-14T04:20:42.207Z,5.60
2018-11-14T04:21:42.194Z,6.80
2018-11-14T04:22:42.186Z,6.50
2018-11-14T04:23:42.185Z,11.10
2018-11-14T04:24:42.164Z,6.90
2018-11-14T04:25:42.197Z,6.80
2018-11-14T04:26:42.151Z,12.50
2018-11-14T04:27:42.134Z,9.30
2018-11-14T04:28:42.132Z,6.70
2018-11-14T04:29:42.114Z,9.00
2018-11-14T04:30:42.103Z,9.30
2018-11-14T04:31:42.134Z,7.70
2018-11-14T04:32:42.086Z,7.00
2018-11-14T04:33:42.064Z,8.10
2018-11-14T04:34:52.905Z,7.00
2018-11-14T04:35:42.045Z,5.30
2018-11-14T04:36:42.036Z,10.50
2018-11-14T04:37:42.063Z,4.50
2018-11-14T04:38:42.013Z,5.90
2018-11-14T04:39:42.008Z,5.00
2018-11-14T04:40:41.988Z,6.00
2018-11-14T04:41:41.983Z,3.60
2018-11-14T04:42:41.974Z,3.80
2018-11-14T04:43:41.999Z,5.40
2018-11-14T04:44:41.948Z,9.30
2018-11-14T04:45:41.937Z,5.30
2018-11-14T04:46:41.929Z,4.10
2018-11-14T04:47:41.921Z,6.00
2018-11-14T04:48:41.909Z,5.20
2018-11-14T04:49:41.929Z,2.90
2018-11-14T04:50:41.882Z,4.00
2018-11-14T04:51:41.877Z,5.50
2018-11-14T04:52:41.862Z,3.60
2018-11-14T04:53:41.855Z,4.60
2018-11-14T04:54:41.838Z,5.40
2018-11-14T04:55:41.870Z,3.40
2018-11-14T04:56:41.826Z,4.30
2018-11-14T04:57:41.812Z,6.10
2018-11-14T04:58:41.799Z,5.20
2018-11-14T04:59:41.791Z,3.70
2018-11-14T05:00:41.775Z,4.80
2018-11-14T05:01:41.812Z,5.40
2018-11-14T05:02:41.801Z,4.10
2018-11-14T05:03:41.747Z,4.70
2018-11-14T05:04:41.734Z,2.90
2018-11-14T05:05:52.028Z,3.50
2018-11-14T05:06:41.711Z,3.70
2018-11-14T05:07:41.741Z,2.80
2018-11-14T05:08:41.692Z,2.70
2018-11-14T05:09:41.685Z,6.30
2018-11-14T05:10:41.669Z,3.30
2018-11-14T05:11:41.656Z,4.40
2018-11-14T05:12:41.675Z,4.70
2018-11-14T05:13:41.672Z,3.20
2018-11-14T05:14:41.628Z,4.20
2018-11-14T05:15:41.619Z,3.90
2018-11-14T05:16:41.605Z,3.50
2018-11-14T05:17:41.590Z,4.10
2018-11-14T05:18:41.585Z,3.90
2018-11-14T05:19:41.621Z,3.80
2018-11-14T05:20:41.566Z,3.50
2018-11-14T05:21:41.548Z,6.00
2018-11-14T05:22:41.544Z,7.40
2018-11-14T05:23:41.530Z,2.80
2018-11-14T05:24:41.558Z,3.90
2018-11-14T05:25:41.676Z,3.60
2018-11-14T05:26:41.503Z,4.90
2018-11-14T05:27:41.484Z,6.00
2018-11-14T05:28:41.473Z,2.60
2018-11-14T05:29:41.466Z,3.10
2018-11-14T05:30:41.449Z,2.90
2018-11-14T05:31:41.497Z,2.50
2018-11-14T05:32:41.432Z,3.50
2018-11-14T05:33:41.423Z,2.60
2018-11-14T05:34:41.417Z,4.30
2018-11-14T05:35:41.398Z,2.30
2018-11-14T05:36:53.358Z,2.70
2018-11-14T05:37:41.373Z,3.30
2018-11-14T05:38:41.368Z,7.10
2018-11-14T05:39:41.451Z,3.20
2018-11-14T05:40:41.349Z,2.60
2018-11-14T05:41:41.337Z,2.70
2018-11-14T05:42:41.369Z,3.10
2018-11-14T05:43:41.313Z,3.60
2018-11-14T05:44:41.311Z,3.90
2018-11-14T05:45:41.427Z,3.50
2018-11-14T05:46:41.282Z,2.20
2018-11-14T05:47:41.267Z,4.80
2018-11-14T05:48:41.445Z,3.60
2018-11-14T05:49:41.255Z,4.30
2018-11-14T05:50:41.236Z,2.30
2018-11-14T05:51:41.225Z,2.20
2018-11-14T05:52:41.215Z,3.80
2018-11-14T05:53:41.205Z,6.00
2018-11-14T05:54:41.389Z,2.60
2018-11-14T05:55:41.186Z,3.10
2018-11-14T05:56:41.188Z,2.50
2018-11-14T05:57:41.160Z,3.40
2018-11-14T05:58:41.162Z,2.70
2018-11-14T05:59:41.149Z,5.70
2018-11-14T06:00:41.313Z,3.30
2018-11-14T06:01:41.137Z,4.30
2018-11-14T06:02:41.113Z,2.80
2018-11-14T06:03:41.099Z,2.80
2018-11-14T06:04:41.082Z,3.60
2018-11-14T06:05:41.080Z,4.00
2018-11-14T06:06:41.104Z,4.20
2018-11-14T06:07:51.399Z,5.80
2018-11-14T06:08:41.046Z,2.60
2018-11-14T06:09:41.033Z,2.40
2018-11-14T06:10:41.047Z,4.10
2018-11-14T06:11:41.006Z,7.00
2018-11-14T06:12:41.170Z,4.90
2018-11-14T06:13:41.010Z,2.80
2018-11-14T06:14:40.984Z,3.80
2018-11-14T06:15:40.968Z,4.50
2018-11-14T06:16:40.957Z,2.40
2018-11-14T06:17:40.970Z,4.40
2018-11-14T06:18:40.954Z,6.50
2018-11-14T06:19:40.924Z,2.80
2018-11-14T06:20:40.909Z,3.30
2018-11-14T06:21:40.902Z,3.90
2018-11-14T06:22:40.887Z,2.50
2018-11-14T06:23:41.029Z,2.90
2018-11-14T06:24:40.912Z,3.80
2018-11-14T06:25:40.856Z,2.90
2018-11-14T06:26:40.849Z,5.00
2018-11-14T06:27:40.864Z,5.80
2018-11-14T06:28:40.830Z,2.70
2018-11-14T06:29:40.886Z,2.80
2018-11-14T06:30:40.869Z,3.40
2018-11-14T06:31:40.788Z,2.70
2018-11-14T06:32:40.779Z,3.40
2018-11-14T06:33:40.791Z,3.50
2018-11-14T06:34:40.759Z,3.00
2018-11-14T06:35:40.759Z,3.30
2018-11-14T06:36:40.780Z,2.40
2018-11-14T06:37:40.731Z,4.30
2018-11-14T06:38:52.184Z,2.60
2018-11-14T06:39:40.712Z,2.90
2018-11-14T06:40:40.704Z,3.40
2018-11-14T06:41:40.762Z,2.60
2018-11-14T06:42:40.741Z,3.50
2018-11-14T06:43:40.668Z,3.30
2018-11-14T06:44:40.648Z,3.40
2018-11-14T06:45:40.646Z,2.50
2018-11-14T06:46:40.635Z,2.60
2018-11-14T06:47:40.627Z,3.40
2018-11-14T06:48:40.623Z,4.30
2018-11-14T06:49:40.601Z,5.30
2018-11-14T06:50:40.593Z,2.90
2018-11-14T06:51:40.579Z,3.00
2018-11-14T06:52:40.570Z,2.70
2018-11-14T06:53:40.558Z,2.70
2018-11-14T06:54:40.715Z,5.00
2018-11-14T06:55:40.534Z,3.40
2018-11-14T06:56:40.520Z,6.00
2018-11-14T06:57:40.514Z,3.10
2018-11-14T06:58:40.579Z,3.00
2018-11-14T06:59:40.539Z,3.10
2018-11-14T07:00:40.651Z,4.90
2018-11-14T07:01:40.471Z,2.60
2018-11-14T07:02:40.459Z,4.40
2018-11-14T07:03:40.453Z,2.70
2018-11-14T07:04:40.443Z,4.10
2018-11-14T07:05:40.514Z,4.10
2018-11-14T07:06:40.495Z,2.90
2018-11-14T07:07:40.406Z,5.50
2018-11-14T07:08:40.393Z,2.40
2018-11-14T07:09:50.651Z,2.90
2018-11-14T07:10:40.373Z,8.80
2018-11-14T07:11:40.355Z,2.30
2018-11-14T07:12:40.389Z,2.60
2018-11-14T07:13:40.336Z,2.20
2018-11-14T07:14:40.632Z,7.00
2018-11-14T07:15:40.318Z,3.50
2018-11-14T07:16:40.451Z,3.80
2018-11-14T07:17:40.357Z,6.20
2018-11-14T07:18:40.321Z,3.40
2018-11-14T07:19:40.318Z,2.40
2018-11-14T07:20:40.262Z,3.10
2018-11-14T07:21:40.255Z,6.40
2018-11-14T07:22:40.239Z,3.70
2018-11-14T07:23:40.312Z,2.80
2018-11-14T07:24:40.462Z,3.60
2018-11-14T07:25:40.223Z,2.60
2018-11-14T07:26:40.198Z,2.00
2018-11-14T07:27:40.183Z,2.60
2018-11-14T07:28:40.182Z,3.70
2018-11-14T07:29:40.173Z,5.10
2018-11-14T07:30:40.194Z,3.10
2018-11-14T07:31:40.143Z,3.10
2018-11-14T07:32:40.132Z,3.30
2018-11-14T07:33:40.151Z,10.50
2018-11-14T07:34:40.159Z,2.60
2018-11-14T07:35:40.100Z,3.30
2018-11-14T07:36:40.137Z,6.80
2018-11-14T07:37:40.105Z,6.30
2018-11-14T07:38:40.065Z,6.20
2018-11-14T07:39:40.055Z,4.60
2018-11-14T07:40:50.344Z,2.10
2018-11-14T07:41:40.031Z,3.60
2018-11-14T07:42:40.078Z,3.70
2018-11-14T07:43:40.093Z,8.80
2018-11-14T07:44:40.014Z,4.30
2018-11-14T07:45:40.884Z,4.90
2018-11-14T07:46:39.986Z,5.90
2018-11-14T07:47:39.972Z,2.40
2018-11-14T07:48:40.138Z,2.60
2018-11-14T07:49:39.953Z,3.40
2018-11-14T07:50:39.959Z,7.10
2018-11-14T07:51:39.929Z,4.70
2018-11-14T07:52:39.917Z,2.00
2018-11-14T07:53:39.918Z,1.80
2018-11-14T07:54:39.978Z,2.00
2018-11-14T07:55:39.881Z,2.80
2018-11-14T07:56:39.908Z,2.10
2018-11-14T07:57:39.865Z,1.80
2018-11-14T07:58:39.859Z,2.00
2018-11-14T07:59:39.841Z,3.70
2018-11-14T08:00:39.873Z,1.80
2018-11-14T08:01:39.822Z,3.30
2018-11-14T08:02:39.811Z,4.80
2018-11-14T08:03:39.804Z,1.90
2018-11-14T08:04:39.781Z,1.50
2018-11-14T08:05:39.789Z,2.30
2018-11-14T08:06:39.861Z,2.70
2018-11-14T08:07:39.756Z,1.40
2018-11-14T08:08:39.746Z,1.40
2018-11-14T08:09:39.793Z,1.60
2018-11-14T08:10:39.720Z,1.20
2018-11-14T08:11:49.950Z,2.20
2018-11-14T08:12:39.699Z,1.90
2018-11-14T08:13:39.685Z,1.60
2018-11-14T08:14:39.678Z,1.60
2018-11-14T08:15:39.664Z,1.50
2018-11-14T08:16:39.665Z,3.40
2018-11-14T08:17:39.686Z,3.50
2018-11-14T08:18:39.768Z,2.50
2018-11-14T08:19:39.625Z,1.90
2018-11-14T08:20:39.612Z,3.60
2018-11-14T08:21:39.606Z,2.10
2018-11-14T08:22:39.613Z,1.80
2018-11-14T08:23:39.626Z,2.50
2018-11-14T08:24:39.575Z,1.60
2018-11-14T08:25:39.568Z,2.10
2018-11-14T08:26:39.554Z,1.70
2018-11-14T08:27:39.542Z,2.80
2018-11-14T08:28:39.534Z,3.40
2018-11-14T08:29:39.557Z,1.80
2018-11-14T08:30:39.621Z,1.70
2018-11-14T08:31:39.494Z,1.80
2018-11-14T08:32:39.576Z,2.40
2018-11-14T08:33:39.485Z,3.00
2018-11-14T08:34:39.460Z,2.10
2018-11-14T08:35:39.490Z,3.30
2018-11-14T08:36:39.440Z,1.60
2018-11-14T08:37:39.441Z,2.10
2018-11-14T08:38:39.420Z,2.50
2018-11-14T08:39:39.408Z,2.10
2018-11-14T08:40:39.403Z,4.50
2018-11-14T08:41:39.426Z,2.10
2018-11-14T08:42:50.075Z,2.90
2018-11-14T08:43:39.360Z,4.20
2018-11-14T08:44:39.350Z,2.60
2018-11-14T08:45:39.343Z,3.10
2018-11-14T08:46:39.336Z,3.80
2018-11-14T08:47:39.393Z,2.40
2018-11-14T08:48:39.312Z,1.90
2018-11-14T08:49:39.302Z,3.10
2018-11-14T08:50:39.296Z,3.10
2018-11-14T08:51:39.316Z,3.90
2018-11-14T08:52:39.262Z,2.00
2018-11-14T08:53:39.444Z,1.70
2018-11-14T08:54:39.246Z,2.50
2018-11-14T08:55:39.234Z,4.10
2018-11-14T08:56:39.229Z,1.90
2018-11-14T08:57:39.218Z,2.30
2018-11-14T08:58:39.202Z,2.00
2018-11-14T08:59:39.236Z,2.20
2018-11-14T09:00:39.207Z,2.40
2018-11-14T09:01:39.169Z,2.60
2018-11-14T09:02:39.161Z,3.50
2018-11-14T09:03:39.151Z,3.10
2018-11-14T09:04:39.139Z,2.70
2018-11-14T09:05:39.464Z,2.10
2018-11-14T09:06:39.124Z,1.90
2018-11-14T09:07:39.167Z,2.30
2018-11-14T09:08:39.093Z,4.00
2018-11-14T09:09:39.097Z,2.90
2018-11-14T09:10:39.073Z,2.80
2018-11-14T09:11:39.459Z,2.40
2018-11-14T09:12:39.137Z,3.80
2018-11-14T09:13:49.511Z,2.80
2018-11-14T09:14:39.049Z,4.10
2018-11-14T09:15:39.022Z,2.40
2018-11-14T09:16:39.002Z,5.10
2018-11-14T09:17:39.178Z,3.00
2018-11-14T09:18:39.009Z,2.80
2018-11-14T09:19:38.979Z,1.70
2018-11-14T09:20:38.971Z,4.80
2018-11-14T09:21:38.958Z,2.00
2018-11-14T09:22:38.949Z,2.60
2018-11-14T09:23:38.958Z,3.60
2018-11-14T09:24:38.942Z,2.00
2018-11-14T09:25:38.904Z,4.70
2018-11-14T09:26:38.906Z,6.20
2018-11-14T09:27:38.892Z,2.10
2018-11-14T09:28:38.885Z,5.60
2018-11-14T09:29:38.909Z,2.10
2018-11-14T09:30:38.861Z,2.20
2018-11-14T09:31:38.853Z,3.10
2018-11-14T09:32:38.839Z,2.30
2018-11-14T09:33:38.826Z,2.90
2018-11-14T09:34:38.844Z,2.20
2018-11-14T09:35:38.839Z,4.00
2018-11-14T09:36:38.794Z,2.40
2018-11-14T09:37:38.779Z,1.80
2018-11-14T09:38:38.807Z,3.50
2018-11-14T09:39:38.763Z,2.10
2018-11-14T09:40:38.762Z,5.90
2018-11-14T09:41:38.778Z,4.00
2018-11-14T09:42:38.724Z,3.80
2018-11-14T09:43:38.735Z,3.20
2018-11-14T09:44:49.032Z,4.80
2018-11-14T09:45:38.692Z,4.50
2018-11-14T09:46:38.684Z,3.50
2018-11-14T09:47:38.710Z,3.00
2018-11-14T09:48:38.689Z,3.50
2018-11-14T09:49:38.652Z,9.10
2018-11-14T09:50:38.649Z,4.60
2018-11-14T09:51:38.632Z,5.70
2018-11-14T09:52:38.665Z,4.40
2018-11-14T09:53:38.690Z,4.30
2018-11-14T09:54:38.598Z,4.60
2018-11-14T09:55:38.591Z,4.30
2018-11-14T09:56:38.589Z,6.30
2018-11-14T09:57:38.567Z,5.80
2018-11-14T09:58:38.589Z,5.60
2018-11-14T09:59:38.589Z,4.90
2018-11-14T10:00:38.560Z,10.10
2018-11-14T10:01:38.521Z,10.40
2018-11-14T10:02:38.567Z,7.80
2018-11-14T10:03:38.570Z,6.10
2018-11-14T10:04:38.490Z,5.90
2018-11-14T10:05:38.592Z,5.10
2018-11-14T10:06:38.469Z,4.80
2018-11-14T10:07:38.511Z,7.50
2018-11-14T10:08:38.446Z,5.20
2018-11-14T10:09:38.431Z,3.90
2018-11-14T10:10:38.427Z,9.00
2018-11-14T10:11:38.452Z,4.60
2018-11-14T10:12:38.405Z,5.40
2018-11-14T10:13:38.393Z,5.40
2018-11-14T10:14:38.381Z,4.10
2018-11-14T10:15:49.655Z,6.50
2018-11-14T10:16:38.359Z,8.90
2018-11-14T10:17:38.382Z,8.50
2018-11-14T10:18:38.335Z,7.40
2018-11-14T10:19:38.323Z,3.80
2018-11-14T10:20:38.345Z,4.60
2018-11-14T10:21:38.321Z,9.50
2018-11-14T10:22:38.295Z,6.60
2018-11-14T10:23:38.352Z,4.20
2018-11-14T10:24:38.271Z,9.70
2018-11-14T10:25:38.259Z,6.40
2018-11-14T10:26:38.254Z,4.50
2018-11-14T10:27:38.258Z,5.80
2018-11-14T10:28:38.229Z,10.60
2018-11-14T10:29:38.403Z,6.20
2018-11-14T10:30:38.214Z,5.70
2018-11-14T10:31:38.296Z,5.60
2018-11-14T10:32:38.179Z,8.50
2018-11-14T10:33:38.173Z,5.00
2018-11-14T10:34:38.168Z,7.00
2018-11-14T10:35:38.191Z,7.40
2018-11-14T10:36:38.143Z,5.80
2018-11-14T10:37:38.148Z,8.50
2018-11-14T10:38:38.121Z,7.30
2018-11-14T10:39:38.108Z,9.00
2018-11-14T10:40:38.100Z,10.10
2018-11-14T10:41:38.257Z,10.70
2018-11-14T10:42:38.080Z,6.30
2018-11-14T10:43:38.068Z,5.60
2018-11-14T10:44:38.054Z,5.00
2018-11-14T10:45:38.044Z,7.90
2018-11-14T10:46:48.551Z,7.60
2018-11-14T10:47:38.017Z,12.70
2018-11-14T10:48:38.007Z,6.50
2018-11-14T10:49:38.010Z,5.80
2018-11-14T10:50:37.980Z,5.70
2018-11-14T10:51:37.978Z,5.90
2018-11-14T10:52:38.054Z,7.70
2018-11-14T10:53:37.949Z,6.50
2018-11-14T10:54:37.940Z,7.50
2018-11-14T10:55:37.926Z,7.60
2018-11-14T10:56:37.940Z,7.90
2018-11-14T10:57:37.910Z,7.10
2018-11-14T10:58:37.938Z,5.80
2018-11-14T10:59:37.885Z,7.20
2018-11-14T11:00:37.873Z,4.20
2018-11-14T11:01:37.865Z,6.00
2018-11-14T11:02:37.868Z,3.90
2018-11-14T11:03:37.847Z,9.40
2018-11-14T11:04:38.004Z,4.60
2018-11-14T11:05:37.820Z,5.80
2018-11-14T11:06:37.813Z,5.40
2018-11-14T11:07:37.814Z,5.70
2018-11-14T11:08:37.875Z,8.70
2018-11-14T11:09:37.773Z,5.00
2018-11-14T11:10:37.812Z,5.10
2018-11-14T11:11:37.760Z,6.60
2018-11-14T11:12:37.742Z,5.30
2018-11-14T11:13:37.775Z,4.20
2018-11-14T11:14:37.727Z,6.40
2018-11-14T11:15:37.720Z,4.80
2018-11-14T11:16:37.733Z,7.30
2018-11-14T11:17:48.403Z,4.10
2018-11-14T11:18:37.671Z,5.30
2018-11-14T11:19:37.670Z,5.60
2018-11-14T11:20:37.652Z,5.10
2018-11-14T11:21:37.647Z,5.80
2018-11-14T11:22:37.670Z,4.90
2018-11-14T11:23:37.706Z,4.10
2018-11-14T11:24:37.615Z,8.80
2018-11-14T11:25:37.597Z,4.80
2018-11-14T11:26:37.590Z,10.40
2018-11-14T11:27:37.578Z,3.20
2018-11-14T11:28:37.597Z,6.30
2018-11-14T11:29:37.552Z,3.30
2018-11-14T11:30:37.598Z,5.60
2018-11-14T11:31:37.531Z,3.60
2018-11-14T11:32:37.539Z,3.90
2018-11-14T11:33:37.512Z,3.70
2018-11-14T11:34:37.556Z,3.40
2018-11-14T11:35:37.486Z,3.50
2018-11-14T11:36:37.480Z,4.10
2018-11-14T11:37:37.475Z,4.20
2018-11-14T11:38:37.471Z,4.80
2018-11-14T11:39:37.446Z,4.40
2018-11-14T11:40:37.451Z,5.70
2018-11-14T11:41:37.424Z,3.60
2018-11-14T11:42:37.407Z,3.40
2018-11-14T11:43:37.405Z,11.40
2018-11-14T11:44:37.558Z,4.00
2018-11-14T11:45:37.374Z,2.40
2018-11-14T11:46:37.402Z,3.70
2018-11-14T11:47:37.374Z,4.10
2018-11-14T11:48:47.965Z,2.20
2018-11-14T11:49:37.334Z,3.60
2018-11-14T11:50:37.324Z,5.30
2018-11-14T11:51:37.316Z,2.30
2018-11-14T11:52:37.317Z,4.50
2018-11-14T11:53:37.295Z,2.20
2018-11-14T11:54:37.285Z,2.30
2018-11-14T11:55:37.281Z,2.70
2018-11-14T11:56:37.257Z,3.60
2018-11-14T11:57:37.323Z,3.40
2018-11-14T11:58:37.277Z,2.80
2018-11-14T11:59:37.315Z,3.60
2018-11-14T12:00:37.419Z,2.30
2018-11-14T12:01:37.208Z,5.00
2018-11-14T12:02:37.192Z,2.20
2018-11-14T12:03:37.181Z,2.70
2018-11-14T12:04:37.207Z,6.00
2018-11-14T12:05:37.175Z,3.10
2018-11-14T12:06:37.157Z,2.50
2018-11-14T12:07:37.138Z,4.10
2018-11-14T12:08:37.129Z,4.80
2018-11-14T12:09:37.118Z,4.00
2018-11-14T12:10:37.152Z,6.00
2018-11-14T12:11:37.091Z,3.00
2018-11-14T12:12:37.088Z,5.00
2018-11-14T12:13:37.095Z,2.50
2018-11-14T12:14:37.060Z,2.60
2018-11-14T12:15:37.050Z,2.40
2018-11-14T12:16:37.078Z,4.60
2018-11-14T12:17:37.084Z,6.90
2018-11-14T12:18:37.016Z,4.00
2018-11-14T12:19:47.046Z,3.40
2018-11-14T12:20:36.990Z,2.50
2018-11-14T12:21:36.984Z,5.50
2018-11-14T12:22:36.984Z,3.30
2018-11-14T12:23:37.052Z,2.50
2018-11-14T12:24:36.948Z,3.40
2018-11-14T12:25:36.938Z,6.60
2018-11-14T12:26:36.999Z,3.90
2018-11-14T12:27:36.933Z,8.60
2018-11-14T12:28:36.945Z,2.30
2018-11-14T12:29:36.900Z,2.80
2018-11-14T12:30:36.987Z,2.20
2018-11-14T12:31:36.890Z,2.10
2018-11-14T12:32:37.925Z,2.30
2018-11-14T12:33:36.859Z,2.30
2018-11-14T12:34:37.001Z,3.80
2018-11-14T12:35:36.882Z,2.40
2018-11-14T12:36:36.824Z,3.60
2018-11-14T12:37:36.810Z,2.80
2018-11-14T12:38:36.803Z,4.00
2018-11-14T12:39:36.790Z,2.50
2018-11-14T12:40:36.816Z,2.60
2018-11-14T12:41:36.767Z,3.60
2018-11-14T12:42:36.749Z,2.50
2018-11-14T12:43:36.751Z,2.70
2018-11-14T12:44:36.734Z,2.50
2018-11-14T12:45:36.721Z,2.20
2018-11-14T12:46:36.747Z,2.70
2018-11-14T12:47:36.697Z,6.30
2018-11-14T12:48:36.684Z,3.10
2018-11-14T12:49:36.673Z,2.70
2018-11-14T12:50:47.082Z,3.20
2018-11-14T12:51:36.654Z,4.60
2018-11-14T12:52:36.884Z,3.60
2018-11-14T12:53:36.635Z,2.90
2018-11-14T12:54:36.619Z,2.70
2018-11-14T12:55:36.616Z,4.20
2018-11-14T12:56:36.598Z,2.50
2018-11-14T12:57:36.588Z,4.30
2018-11-14T12:58:36.618Z,3.80
2018-11-14T12:59:36.711Z,3.20
2018-11-14T13:00:36.560Z,6.00
2018-11-14T13:01:36.543Z,3.30
2018-11-14T13:02:36.537Z,3.40
2018-11-14T13:03:36.522Z,3.10
2018-11-14T13:04:36.555Z,2.90
2018-11-14T13:05:36.508Z,1.40
2018-11-14T13:06:36.496Z,1.30
2018-11-14T13:07:36.479Z,2.40
2018-11-14T13:08:36.476Z,2.10
2018-11-14T13:09:36.463Z,1.20
2018-11-14T13:10:36.482Z,3.80
2018-11-14T13:11:36.439Z,1.50
2018-11-14T13:12:36.426Z,3.10
2018-11-14T13:13:36.417Z,1.70
2018-11-14T13:14:36.409Z,2.00
2018-11-14T13:15:36.395Z,2.60
2018-11-14T13:16:36.562Z,4.40